Accueil
METAR-TAF:

METAR-TAF

Aéroports :

Plate-forme pétrolière

Ekofisk, Norvège

latitude: 56-33N, longitude: 003-15E, altitude: 3 m

Observation

Le bulletin a été fait il y a 17 minutes, à 14:50 UTC
Vent 24 kt de sud-ouest
Température 9°C
Humidité 93%
Pression 1019 hPa
Visibilité 10 km ou plus
pas de nuages en-dessous de 1500 mètres et pas de cumulonimbus.

METAR: ENLE 121450Z 23024KT CAVOK 09/08 Q1019 W08/S4

Heure: 17:07 (15:07 UTC)

Prévision

Le bulletin a été fait il y a 1 heure et 7 minutes, à 14:00 UTC
Prévision valable du 12 à 15 UTC au 12 à 24 UTC
Vent 28 kt de sud-ouest
Visibilité 10 km ou plus
pas de nuages en-dessous de 1500 mètres et pas de cumulonimbus.

TAF: ENLE 121400Z 1215/1224 23028KT CAVOK

Observations et prévisions météorologiques de plus de 4000 aéroports (messages METAR et TAF).

Les stations disponibles sont représentées par des disques jaunes et rouges sur la carte.

Passer la souris dessus pour voir le nom de la station.

Cliquer dessus pour voir les observations et prévisions météorologiques.

Pour changer de carte: cliquez sur les boutons verts avec une croix noire pour zoomer, sur le bouton vert avec un tiret pour effectuer un zoom arrière, ou sur les flèches vertes pour les cartes adjacentes.


METAR-TAF: